< < Back
Terminal Aerodrome Forecast


Current Version              Previous Versions:   1  2  3  4  5  6  7  8  9  

Terminal Aerodrome Forecast

791
FTUS44 KOHX 252300
TAFCSV
TAF
KCSV 252337Z 2600/2624 30004KT P6SM SKC
     FM260500 00000KT 4SM BR SCT150
     FM260800 00000KT 2SM BR SCT150
     FM261400 24008KT P6SM BKN250=



Latest METAR

588
SAUS70 KWBC 260500 RRE
MTRCSV
METAR KCSV 260453Z AUTO 00000KT 10SM CLR 17/14 A3011 RMK AO2 SLP177
T01720144


USA.gov is the U.S. government's official web portal to all federal, state and local government web resources and services.